Time;durP1;ratioP1;P1;durP2;ratioP2;P2;SDS_P1;SDS_P2;PMS_P1;PMS_P2;Temp;Humidity;BMP_temperature;BMP_pressure;BME280_temperature;BME280_humidity;BME280_pressure;Samples;Min_cycle;Max_cycle;Signal;HPM_P1;HPM_P2
2023/08/21 00:01:31;;;;;;;7.85;6.15;;;25.70;71.30;;;27.33;51.14;98147.41;5030899;28;20037;-52
2023/08/21 00:03:59;;;;;;;6.22;5.15;;;25.60;71.80;;;27.28;50.98;98149.00;5031283;28;20037;-49
2023/08/21 00:06:27;;;;;;;7.10;5.53;;;25.50;72.30;;;27.27;51.48;98157.47;5031207;28;20398;-52
2023/08/21 00:08:54;;;;;;;9.68;5.38;;;25.60;72.40;;;27.26;51.23;98159.38;5030555;28;20501;-51
2023/08/21 00:11:22;;;;;;;5.97;5.20;;;25.60;72.50;;;27.23;51.02;98146.19;5031040;28;20072;-53
2023/08/21 00:13:49;;;;;;;5.95;5.43;;;25.50;72.60;;;27.21;51.13;98153.81;5031285;28;20045;-52
2023/08/21 00:16:17;;;;;;;5.82;5.20;;;25.50;72.50;;;27.20;51.46;98154.06;5031872;28;20049;-49
2023/08/21 00:18:45;;;;;;;6.13;5.28;;;25.40;73.60;;;27.19;51.62;98155.16;5035199;28;20048;-53
2023/08/21 00:21:13;;;;;;;6.70;5.20;;;25.50;72.50;;;27.17;51.05;98149.13;5032856;28;20041;-52
2023/08/21 00:23:41;;;;;;;6.45;5.65;;;25.40;72.50;;;27.14;51.18;98149.63;5034171;28;20061;-52
2023/08/21 00:26:08;;;;;;;7.25;5.95;;;25.40;72.80;;;27.11;51.20;98157.25;5034777;28;20528;-47
2023/08/21 00:28:36;;;;;;;7.68;5.90;;;25.40;73.00;;;27.09;51.26;98151.22;5035090;28;20113;-49
2023/08/21 00:31:05;;;;;;;6.47;5.30;;;25.40;73.10;;;27.07;51.69;98142.47;5034565;28;20048;-49
2023/08/21 00:33:33;;;;;;;8.20;6.30;;;25.40;73.10;;;27.06;51.58;98139.97;5033264;28;20204;-51
2023/08/21 00:36:01;;;;;;;7.25;5.30;;;25.30;73.30;;;27.05;51.35;98139.16;5033141;28;20504;-52
2023/08/21 00:38:29;;;;;;;6.70;4.70;;;25.40;73.30;;;27.01;51.94;98138.03;5034169;28;20045;-51
2023/08/21 00:40:57;;;;;;;9.18;5.55;;;25.30;73.60;;;27.00;51.91;98141.00;5034117;28;20034;-50
2023/08/21 00:43:25;;;;;;;8.65;6.45;;;25.30;73.70;;;26.98;51.73;98134.97;5034671;28;20038;-50
2023/08/21 00:45:52;;;;;;;7.45;5.18;;;25.30;73.50;;;26.97;51.25;98134.16;5034208;28;20056;-49
2023/08/21 00:48:21;;;;;;;7.47;5.28;;;25.30;73.10;;;26.94;51.49;98131.91;5033308;28;20046;-53
2023/08/21 00:50:49;;;;;;;7.30;5.68;;;25.20;73.10;;;26.92;51.26;98132.16;5034406;28;20041;-54
2023/08/21 00:53:17;;;;;;;7.22;6.47;;;25.20;73.00;;;26.90;51.48;98128.06;5033469;28;20057;-53
2023/08/21 00:55:45;;;;;;;7.70;5.82;;;25.20;73.00;;;26.89;51.47;98129.97;5025364;28;20053;-51
2023/08/21 00:58:13;;;;;;;8.45;5.00;;;25.20;72.90;;;26.86;51.53;98125.00;5033077;28;20056;-52
2023/08/21 01:00:47;;;;;;;6.18;5.57;;;25.20;72.70;;;26.85;51.39;98130.72;5032271;28;20044;-51
2023/08/21 01:03:15;;;;;;;6.22;5.57;;;25.10;73.00;;;26.84;51.90;98126.34;5032689;28;20045;-51
2023/08/21 01:05:42;;;;;;;6.15;5.55;;;25.10;73.30;;;26.82;52.04;98120.31;5033112;28;20052;-53
2023/08/21 01:08:29;;;;;;;8.27;5.88;;;25.10;73.70;;;26.79;51.96;98121.63;5034669;28;20040;-53
2023/08/21 01:11:14;;;;;;;8.07;5.30;;;25.10;74.00;;;26.78;51.82;98128.19;5025861;28;20056;-50
2023/08/21 01:14:27;;;;;;;7.57;5.90;;;25.10;74.00;;;26.76;51.61;98124.06;5034168;28;20523;-49
2023/08/21 01:17:02;;;;;;;7.13;5.90;;;25.00;74.20;;;26.78;51.86;98125.47;5021428;28;20417;-54
2023/08/21 01:19:41;;;;;;;9.63;5.43;;;25.00;73.60;;;26.79;51.35;98127.09;5032738;28;20068;-53
2023/08/21 01:22:09;;;;;;;7.25;6.15;;;25.10;73.00;;;26.79;51.68;98131.75;5032541;28;20516;-49
2023/08/21 01:24:37;;;;;;;6.20;5.18;;;25.10;72.70;;;26.77;51.91;98121.06;5032212;28;20049;-50
2023/08/21 01:27:04;;;;;;;8.90;5.35;;;25.10;72.90;;;26.75;51.60;98134.16;5032720;28;20528;-52
2023/08/21 01:29:33;;;;;;;8.70;6.32;;;25.00;73.60;;;26.73;51.69;98130.84;5032869;28;20053;-52
2023/08/21 01:32:32;;;;;;;6.15;5.55;;;25.00;73.80;;;26.70;51.85;98140.38;5032598;28;20057;-53
2023/08/21 01:35:01;;;;;;;6.47;5.28;;;25.00;74.40;;;26.70;51.76;98129.47;5026546;28;20053;-52
2023/08/21 01:37:30;;;;;;;7.13;5.82;;;25.00;74.20;;;26.70;51.90;98125.91;5032240;28;20045;-50
2023/08/21 01:39:58;;;;;;;6.70;6.10;;;25.00;74.10;;;26.66;51.90;98131.06;5033329;28;20041;-52
2023/08/21 01:42:26;;;;;;;8.35;6.25;;;25.00;74.20;;;26.62;52.54;98129.91;5032442;28;20054;-52
2023/08/21 01:44:54;;;;;;;7.25;5.80;;;24.90;74.70;;;26.60;52.41;98120.31;5033701;28;20042;-53
2023/08/21 01:47:22;;;;;;;8.40;5.43;;;24.90;75.10;;;26.56;52.09;98119.97;5032607;28;20049;-52
2023/08/21 01:49:52;;;;;;;8.60;5.40;;;24.80;75.00;;;26.54;52.43;98119.41;5031584;28;20050;-52
2023/08/21 01:52:19;;;;;;;9.43;6.60;;;24.80;75.20;;;26.52;52.69;98119.66;5031151;28;20053;-52
2023/08/21 01:54:50;;;;;;;7.93;5.00;;;24.70;75.30;;;26.49;52.87;98117.41;5024663;28;20441;-53
2023/08/21 01:57:18;;;;;;;5.85;5.25;;;24.70;75.60;;;26.47;52.24;98122.31;5033178;28;20041;-48
2023/08/21 01:59:46;;;;;;;8.40;5.53;;;24.70;75.30;;;26.45;52.86;98118.19;5032344;28;20520;-53
2023/08/21 02:02:15;;;;;;;8.05;5.63;;;24.70;75.60;;;26.41;53.06;98117.84;5032355;28;20037;-53
2023/08/21 02:04:43;;;;;;;8.35;5.65;;;24.70;76.10;;;26.37;53.18;98114.00;5032269;28;20046;-51
2023/08/21 02:07:11;;;;;;;7.90;5.00;;;24.60;76.50;;;26.38;52.50;98115.63;5032899;28;20037;-49
2023/08/21 02:09:39;;;;;;;7.15;5.78;;;24.60;76.50;;;26.36;52.58;98115.06;5031427;28;20057;-51
2023/08/21 02:12:06;;;;;;;7.70;5.47;;;24.60;76.50;;;26.35;52.70;98121.59;5031575;28;20424;-51
2023/08/21 02:14:34;;;;;;;6.68;5.03;;;24.60;76.50;;;26.32;52.78;98122.91;5032754;28;20178;-51
2023/08/21 02:17:02;;;;;;;8.70;5.82;;;24.60;76.40;;;26.29;53.00;98120.72;5031210;28;20061;-51
2023/08/21 02:19:30;;;;;;;7.40;5.00;;;24.60;76.70;;;26.29;53.18;98122.63;5030961;28;20524;-53
2023/08/21 02:21:58;;;;;;;6.55;5.47;;;24.60;76.90;;;26.26;52.91;98123.09;5032586;28;20037;-54
2023/08/21 02:24:25;;;;;;;7.05;5.13;;;24.50;77.20;;;26.24;53.37;98123.34;5032524;28;20050;-52
2023/08/21 02:26:53;;;;;;;7.00;5.50;;;24.50;77.30;;;26.21;52.93;98123.88;5031253;28;20052;-51
2023/08/21 02:29:21;;;;;;;6.22;5.60;;;24.40;77.60;;;26.18;53.51;98129.00;5030816;28;20056;-50
2023/08/21 02:31:48;;;;;;;7.78;5.60;;;24.40;77.80;;;26.15;53.66;98132.22;5023327;28;20049;-48
2023/08/21 02:34:16;;;;;;;6.38;5.60;;;24.40;78.30;;;26.15;53.66;98126.75;5031358;28;20417;-51
2023/08/21 02:36:46;;;;;;;6.10;5.20;;;24.40;78.50;;;26.14;53.51;98131.41;5032550;28;20042;-49
2023/08/21 02:39:14;;;;;;;8.90;6.00;;;24.40;78.30;;;26.13;53.07;98136.03;5031626;28;20045;-52
2023/08/21 02:41:42;;;;;;;6.28;5.15;;;24.30;78.00;;;26.12;53.06;98139.00;5030591;28;20455;-51
2023/08/21 02:44:09;;;;;;;8.05;5.68;;;24.30;77.90;;;26.10;53.39;98141.97;5030942;28;20042;-50
2023/08/21 02:46:37;;;;;;;8.52;6.45;;;24.40;78.50;;;26.07;53.29;98141.66;5032199;28;20049;-52
2023/08/21 02:49:05;;;;;;;7.43;6.05;;;24.30;78.50;;;26.02;53.71;98144.31;5030292;28;20045;-50
2023/08/21 02:51:32;;;;;;;8.68;5.53;;;24.20;79.00;;;26.00;53.66;98136.38;5030432;28;20049;-47
2023/08/21 02:54:00;;;;;;;6.40;5.35;;;24.20;79.20;;;25.98;54.03;98134.94;5030685;28;20524;-51
2023/08/21 02:56:29;;;;;;;8.15;5.22;;;24.20;79.30;;;25.96;54.24;98131.66;5031842;28;20037;-53
2023/08/21 02:58:56;;;;;;;5.55;4.78;;;24.20;79.60;;;25.94;53.77;98123.75;5030470;28;20037;-49
2023/08/21 03:01:24;;;;;;;7.35;6.55;;;24.20;79.60;;;25.93;54.05;98130.25;5031760;28;20048;-53
2023/08/21 03:03:52;;;;;;;8.27;6.10;;;24.20;79.70;;;25.89;54.11;98132.63;5030983;28;20517;-53
2023/08/21 03:06:20;;;;;;;7.93;6.07;;;24.10;79.90;;;25.88;53.75;98128.25;5031222;28;20501;-51
2023/08/21 03:08:48;;;;;;;7.25;5.70;;;24.20;79.90;;;25.88;54.20;98128.25;5030504;28;20528;-52
2023/08/21 03:11:15;;;;;;;6.50;5.65;;;24.10;79.70;;;25.87;54.21;98126.59;5030340;28;20049;-52
2023/08/21 03:13:43;;;;;;;6.93;5.88;;;24.10;79.60;;;25.86;53.94;98129.56;5029899;28;20045;-50
2023/08/21 03:16:10;;;;;;;8.38;5.28;;;24.10;80.50;;;25.82;54.37;98131.13;5030473;28;20053;-50
2023/08/21 03:18:59;;;;;;;6.95;5.60;;;24.00;80.00;;;25.79;53.89;98137.09;5030322;28;20045;-50
2023/08/21 03:21:28;;;;;;;7.03;6.32;;;24.00;80.50;;;25.80;54.20;98130.56;5031143;28;20045;-50
2023/08/21 03:24:01;;;;;;;8.30;5.28;;;24.00;80.00;;;25.79;53.81;98131.66;5028665;28;20041;-51
2023/08/21 03:26:32;;;;;;;8.30;6.07;;;24.00;79.80;;;25.79;54.02;98134.38;5015058;28;20049;-53
2023/08/21 03:29:00;;;;;;;7.15;5.75;;;24.10;79.60;;;25.77;53.95;98137.34;5029874;28;20052;-53
2023/08/21 03:31:29;;;;;;;7.03;6.28;;;24.00;79.70;;;25.73;54.10;98134.28;5029593;28;20068;-51
2023/08/21 03:33:57;;;;;;;9.77;6.30;;;24.00;80.20;;;25.74;54.23;98137.81;5014490;28;20337;-52
2023/08/21 03:36:30;;;;;;;7.90;6.25;;;24.00;80.20;;;25.73;54.47;98137.00;5031774;28;20049;-52
2023/08/21 03:39:01;;;;;;;9.38;5.72;;;24.00;80.00;;;25.73;54.53;98134.28;5024944;28;20046;-54
2023/08/21 03:41:30;;;;;;;8.80;5.68;;;24.00;80.10;;;25.71;54.24;98132.88;5030019;28;20044;-50
2023/08/21 03:43:57;;;;;;;7.93;5.40;;;23.90;80.10;;;25.68;54.74;98139.63;5029669;28;20046;-51
2023/08/21 03:46:25;;;;;;;7.35;5.60;;;24.00;80.40;;;25.68;54.24;98136.91;5013857;28;20045;-51
2023/08/21 03:48:55;;;;;;;7.47;5.97;;;24.00;80.30;;;25.65;54.50;98131.13;5022219;28;20053;-52
2023/08/21 03:51:23;;;;;;;9.43;5.70;;;23.90;80.50;;;25.61;54.44;98136.25;5029327;28;20145;-51
2023/08/21 03:53:50;;;;;;;8.38;6.05;;;23.90;80.80;;;25.61;54.71;98140.88;5030011;28;20045;-53
2023/08/21 03:56:19;;;;;;;9.75;6.13;;;23.90;80.70;;;25.62;54.31;98140.63;5029504;28;20053;-51
2023/08/21 03:58:48;;;;;;;7.57;6.03;;;23.90;80.50;;;25.61;54.20;98141.72;5029445;28;20061;-53
2023/08/21 04:01:15;;;;;;;8.80;6.25;;;23.90;80.10;;;25.60;54.18;98142.78;5013567;28;20041;-52
2023/08/21 04:03:43;;;;;;;10.35;5.50;;;23.90;80.10;;;25.60;54.48;98147.41;5031089;28;20042;-53
2023/08/21 04:06:12;;;;;;;8.70;6.75;;;23.90;80.20;;;25.59;54.15;98151.19;5029561;28;20037;-52
2023/08/21 04:08:40;;;;;;;6.95;6.25;;;23.90;80.00;;;25.59;54.20;98159.38;5031109;28;20501;-53
2023/08/21 04:11:09;;;;;;;7.90;5.82;;;23.90;80.00;;;25.56;54.44;98154.44;5029128;28;20683;-52
2023/08/21 04:13:37;;;;;;;6.80;6.10;;;23.90;80.10;;;25.55;54.19;98159.03;5030978;28;20053;-52
2023/08/21 04:16:05;;;;;;;7.95;5.60;;;23.90;80.20;;;25.53;54.23;98158.44;5030282;28;20501;-52
2023/08/21 04:18:32;;;;;;;8.32;6.00;;;23.80;80.10;;;25.52;54.38;98162.25;5029586;28;20501;-49
2023/08/21 04:21:09;;;;;;;7.35;5.90;;;23.80;80.10;;;25.46;54.56;98166.78;5030570;28;20041;-53
2023/08/21 04:23:37;;;;;;;9.32;5.75;;;23.70;80.30;;;25.44;54.46;98162.66;5029012;28;20089;-53
2023/08/21 04:26:05;;;;;;;8.13;6.60;;;23.70;80.50;;;25.45;54.31;98161.59;5029103;28;20516;-51
2023/08/21 04:28:33;;;;;;;6.90;5.85;;;23.70;80.30;;;25.44;54.70;98160.75;5029315;28;20421;-53
2023/08/21 04:31:07;;;;;;;8.35;6.72;;;23.70;80.20;;;25.42;54.68;98165.63;5029425;28;20425;-50
2023/08/21 04:33:35;;;;;;;8.07;5.93;;;23.70;80.50;;;25.42;54.26;98165.63;5013588;28;20436;-52
2023/08/21 04:36:04;;;;;;;7.78;6.72;;;23.70;80.40;;;25.43;54.74;98161.00;5029180;28;20045;-51
2023/08/21 04:38:32;;;;;;;9.85;7.20;;;23.70;80.40;;;25.42;54.54;98170.25;5029376;28;20049;-50
2023/08/21 04:41:07;;;;;;;7.15;6.30;;;23.70;80.60;;;25.37;54.60;98168.25;5029600;28;20046;-48
2023/08/21 04:43:37;;;;;;;9.70;6.38;;;23.70;81.10;;;25.40;54.89;98158.78;5029206;28;20049;-52
2023/08/21 04:46:07;;;;;;;10.32;7.00;;;23.70;81.00;;;25.39;54.66;98168.84;5029115;28;20048;-52
2023/08/21 04:48:37;;;;;;;7.47;6.78;;;23.70;81.00;;;25.39;54.77;98168.00;5029240;28;20088;-49
2023/08/21 04:51:04;;;;;;;7.03;5.90;;;23.70;81.00;;;25.38;54.94;98169.91;5029068;28;20045;-51
2023/08/21 04:53:32;;;;;;;10.30;5.95;;;23.70;81.20;;;25.40;55.01;98161.50;5013433;28;20050;-49
2023/08/21 04:56:00;;;;;;;6.47;5.45;;;23.80;80.90;;;25.42;54.79;98168.34;5029050;28;20046;-50
2023/08/21 04:58:29;;;;;;;9.95;6.70;;;23.70;80.90;;;25.44;54.91;98168.13;5028810;28;20065;-51
2023/08/21 05:00:59;;;;;;;9.05;6.70;;;23.80;80.80;;;25.45;55.15;98170.56;5021885;28;20417;-51
2023/08/21 05:03:27;;;;;;;9.23;6.60;;;23.80;81.70;;;25.46;55.20;98169.53;5033315;28;20416;-53
2023/08/21 05:05:56;;;;;;;6.95;6.13;;;23.80;80.80;;;25.47;55.28;98167.63;5033371;28;20044;-53
2023/08/21 05:08:26;;;;;;;7.78;7.00;;;23.90;81.10;;;25.48;55.08;98170.09;5016450;28;20056;-57
2023/08/21 05:10:58;;;;;;;7.30;5.80;;;23.80;81.00;;;25.49;55.05;98169.03;5032774;28;20057;-52
2023/08/21 05:13:28;;;;;;;8.93;5.47;;;23.90;81.00;;;25.51;54.88;98174.22;5033029;28;20415;-49
2023/08/21 05:15:58;;;;;;;6.90;6.20;;;23.90;80.90;;;25.50;55.25;98176.13;5025829;28;20042;-52
2023/08/21 05:18:29;;;;;;;;;;;23.90;81.00;;;25.51;55.16;98182.41;5033189;28;20056;-51
2023/08/21 05:20:57;;;;;;;7.53;6.50;;;23.90;81.60;;;25.54;55.52;98176.47;5015854;28;19920;-54
2023/08/21 05:23:25;;;;;;;8.13;7.28;;;23.80;81.60;;;25.53;55.26;98180.25;5033319;28;20060;-53
2023/08/21 05:25:59;;;;;;;8.48;6.13;;;23.90;81.80;;;25.56;55.77;98182.50;5031962;28;20420;-52
2023/08/21 05:28:26;;;;;;;9.38;6.93;;;23.90;81.70;;;25.59;55.26;98181.19;5033211;28;20053;-52
2023/08/21 05:30:54;;;;;;;8.15;7.32;;;24.00;81.40;;;25.62;55.44;98184.25;5033200;28;20445;-50
2023/08/21 05:33:22;;;;;;;7.75;6.38;;;24.10;81.20;;;25.64;55.61;98187.56;5032122;28;20054;-53
2023/08/21 05:35:51;;;;;;;8.00;5.70;;;24.10;81.10;;;25.67;55.23;98188.97;5015358;28;20054;-51
2023/08/21 05:38:19;;;;;;;8.20;6.70;;;24.20;81.00;;;25.69;55.75;98192.28;5032177;28;20053;-54
2023/08/21 05:40:48;;;;;;;7.78;6.60;;;24.20;81.00;;;25.72;55.24;98189.06;5031261;28;20417;-53
2023/08/21 05:43:17;;;;;;;7.28;5.97;;;24.20;80.90;;;25.76;55.35;98190.22;5031832;28;20073;-52
2023/08/21 05:45:44;;;;;;;9.65;6.50;;;24.30;80.90;;;25.81;55.17;98192.22;5031929;28;20058;-52
2023/08/21 05:48:13;;;;;;;7.30;5.68;;;24.30;80.60;;;25.81;55.55;98193.03;5032754;28;20409;-51
2023/08/21 05:50:42;;;;;;;7.88;5.95;;;24.40;80.60;;;25.85;55.14;98193.38;5031230;28;20060;-50
2023/08/21 05:53:09;;;;;;;8.60;6.20;;;24.40;80.60;;;25.88;55.47;98190.13;5031477;28;20046;-56
2023/08/21 05:55:37;;;;;;;6.78;5.60;;;24.40;80.10;;;25.91;54.97;98193.22;5031927;28;20320;-54
2023/08/21 05:58:05;;;;;;;7.95;6.32;;;24.50;79.90;;;25.96;55.10;98195.22;5031729;28;20421;-54
2023/08/21 06:00:34;;;;;;;6.75;5.65;;;24.60;79.80;;;26.01;55.06;98198.03;5031317;28;20052;-52
2023/08/21 06:03:04;;;;;;;7.93;6.30;;;24.60;79.00;;;26.00;54.52;98201.84;5024339;28;20503;-56
2023/08/21 06:05:49;;;;;;;7.00;5.65;;;24.60;78.50;;;26.07;54.21;98204.38;5017652;28;20056;-56
2023/08/21 06:08:18;;;;;;;7.07;6.32;;;24.60;78.10;;;26.06;54.50;98198.13;5031560;28;20057;-52
2023/08/21 06:10:51;;;;;;;8.20;6.22;;;24.60;78.10;;;26.10;54.31;98206.63;5031261;28;20045;-56
2023/08/21 06:13:19;;;;;;;7.05;6.15;;;24.70;78.20;;;26.15;54.31;98205.88;5030672;28;20041;-53
2023/08/21 06:15:49;;;;;;;5.97;5.38;;;24.70;77.60;;;26.17;54.13;98198.28;5030952;28;20060;-56
2023/08/21 06:18:19;;;;;;;10.48;6.70;;;24.70;77.50;;;26.20;54.20;98205.97;5031420;28;20060;-55
2023/08/21 06:20:53;;;;;;;7.22;6.38;;;24.80;77.10;;;26.19;54.00;98205.16;5030805;28;20046;-55
2023/08/21 06:23:21;;;;;;;8.85;6.30;;;24.70;76.80;;;26.21;53.61;98204.88;5031299;28;20045;-51
2023/08/21 06:25:49;;;;;;;6.55;5.95;;;24.80;76.70;;;26.25;53.89;98206.03;5030612;28;20056;-55
2023/08/21 06:28:18;;;;;;;5.97;5.38;;;24.80;76.60;;;26.29;53.47;98202.56;5031270;28;20512;-52
2023/08/21 06:30:46;;;;;;;8.63;5.88;;;24.90;76.40;;;26.31;53.47;98207.78;5030418;28;20063;-56
2023/08/21 06:33:14;;;;;;;6.93;6.22;;;24.90;76.30;;;26.30;53.92;98209.66;5033234;28;20053;-51
2023/08/21 06:35:41;;;;;;;8.38;6.13;;;24.90;76.40;;;26.31;53.81;98210.50;5030887;28;20425;-55
2023/08/21 06:38:09;;;;;;;8.85;6.28;;;24.90;76.20;;;26.34;54.00;98215.47;5031002;28;20424;-55
2023/08/21 06:40:37;;;;;;;7.15;5.60;;;24.90;76.60;;;26.39;54.05;98220.19;5029798;28;20623;-55
2023/08/21 06:43:06;;;;;;;8.55;6.15;;;25.00;76.50;;;26.42;53.51;98222.41;5032250;28;20029;-53
2023/08/21 06:45:34;;;;;;;7.72;6.85;;;25.00;76.20;;;26.45;53.88;98217.28;5031555;28;20041;-56
2023/08/21 06:48:04;;;;;;;7.60;5.90;;;25.10;76.20;;;26.50;53.67;98216.50;5030713;28;20061;-54
2023/08/21 06:50:32;;;;;;;6.45;5.55;;;25.20;75.90;;;26.55;53.31;98216.59;5031955;28;20398;-57
2023/08/21 06:52:59;;;;;;;7.00;5.63;;;25.30;75.40;;;26.61;53.53;98217.53;5030539;28;20417;-55
2023/08/21 06:55:27;;;;;;;7.55;5.85;;;25.40;75.10;;;26.65;53.13;98216.75;5025934;28;20429;-55
2023/08/21 06:57:55;;;;;;;6.80;5.82;;;25.40;74.70;;;26.67;53.36;98224.72;5030252;28;20060;-53
2023/08/21 07:00:22;;;;;;;10.10;5.63;;;25.40;74.90;;;26.70;53.02;98224.22;5030646;28;20417;-52
2023/08/21 07:02:50;;;;;;;8.50;5.95;;;25.40;74.80;;;26.74;53.30;98227.28;5031827;28;20045;-53
2023/08/21 07:05:17;;;;;;;8.55;5.68;;;25.50;74.60;;;26.78;52.72;98221.03;5030984;28;20045;-55
2023/08/21 07:07:45;;;;;;;6.85;6.10;;;25.50;74.20;;;26.83;53.20;98229.31;5031892;28;20044;-50
2023/08/21 07:10:13;;;;;;;10.25;6.40;;;25.60;74.00;;;26.87;52.66;98225.00;5031771;28;20045;-54
2023/08/21 07:12:40;;;;;;;10.57;7.07;;;25.60;73.80;;;26.89;53.14;98222.03;5031631;28;20064;-49
2023/08/21 07:15:08;;;;;;;7.75;5.78;;;25.60;74.70;;;26.88;53.82;98226.63;5031907;28;20049;-51
2023/08/21 07:17:36;;;;;;;7.38;6.47;;;25.60;75.50;;;26.88;53.53;98231.28;5031994;28;20056;-51
2023/08/21 07:20:05;;;;;;;7.68;5.88;;;25.70;75.50;;;26.91;53.71;98228.06;5031290;28;20037;-52
2023/08/21 07:22:32;;;;;;;7.78;6.97;;;25.70;75.40;;;26.95;54.07;98231.09;5031691;28;20049;-54
2023/08/21 07:25:03;;;;;;;8.57;6.35;;;25.80;75.80;;;26.96;54.59;98224.56;5030299;28;20045;-50
2023/08/21 07:27:32;;;;;;;12.75;7.00;;;25.80;76.50;;;27.00;54.52;98234.72;5030587;28;20045;-56
2023/08/21 07:29:59;;;;;;;10.68;6.70;;;25.80;76.50;;;27.03;53.90;98230.66;5031161;28;20049;-58
2023/08/21 07:32:27;;;;;;;6.75;5.97;;;25.80;76.20;;;27.03;54.25;98236.13;5031389;28;20045;-59
2023/08/21 07:34:55;;;;;;;10.82;6.53;;;25.80;76.80;;;27.00;54.20;98244.81;5031370;28;20045;-64
2023/08/21 07:37:22;;;;;;;8.27;5.70;;;25.80;76.80;;;27.02;54.50;98242.66;5030393;28;20049;-57
2023/08/21 07:39:50;;;;;;;8.27;7.00;;;25.80;77.30;;;27.06;54.84;98244.66;5031163;28;20044;-58
2023/08/21 07:42:18;;;;;;;10.98;7.20;;;25.80;77.70;;;27.09;54.63;98240.56;5031076;28;20078;-58
2023/08/21 07:44:46;;;;;;;7.50;6.45;;;25.90;77.30;;;27.10;54.56;98248.53;5030979;28;20049;-57
2023/08/21 07:47:13;;;;;;;7.55;6.55;;;25.90;77.60;;;27.10;54.42;98248.53;5031436;28;20513;-48
2023/08/21 07:49:41;;;;;;;7.15;6.13;;;25.90;77.00;;;27.14;54.08;98246.09;5031004;28;20045;-49
2023/08/21 07:52:08;;;;;;;7.57;6.20;;;26.00;77.00;;;27.17;54.01;98242.84;5030960;28;20050;-56
2023/08/21 07:54:36;;;;;;;6.68;6.10;;;26.00;76.20;;;27.19;53.73;98245.34;5031215;28;20054;-57
2023/08/21 07:57:04;;;;;;;10.48;6.40;;;26.00;76.20;;;27.20;53.72;98246.97;5031181;28;20067;-58
2023/08/21 07:59:32;;;;;;;7.43;6.70;;;26.00;75.50;;;27.24;53.49;98253.63;5030814;28;20060;-60
2023/08/21 08:02:00;;;;;;;9.23;7.40;;;26.00;75.10;;;27.25;53.90;98258.00;5031040;28;20053;-60
2023/08/21 08:04:28;;;;;;;8.77;6.90;;;26.00;75.50;;;27.23;53.31;98257.41;5031480;28;20041;-60
2023/08/21 08:06:55;;;;;;;9.30;5.57;;;26.10;74.10;;;27.26;53.23;98255.03;5030870;28;20049;-59
2023/08/21 08:09:23;;;;;;;8.50;6.35;;;26.20;74.50;;;27.32;53.37;98252.34;5030808;28;20444;-61
2023/08/21 08:11:51;;;;;;;8.40;6.63;;;26.20;74.00;;;27.39;53.29;98253.78;5030760;28;20501;-58
2023/08/21 08:14:18;;;;;;;6.78;6.15;;;26.20;74.10;;;27.45;53.25;98254.69;5030105;28;20068;-54
2023/08/21 08:16:46;;;;;;;9.00;6.60;;;26.30;73.70;;;27.50;52.14;98257.50;5029986;28;20053;-53
2023/08/21 08:19:14;;;;;;;7.15;5.63;;;26.40;71.50;;;27.45;52.02;98252.81;5031064;28;20042;-57
2023/08/21 08:21:41;;;;;;;8.45;6.35;;;26.30;71.50;;;27.51;52.29;98248.22;5030505;28;20048;-58
2023/08/21 08:24:09;;;;;;;10.00;6.07;;;26.40;71.90;;;27.58;52.24;98250.75;5031198;28;20061;-58
2023/08/21 08:26:36;;;;;;;7.85;6.10;;;26.40;71.80;;;27.62;52.17;98247.22;5030304;28;20050;-58
2023/08/21 08:29:05;;;;;;;6.53;5.90;;;26.50;71.90;;;27.69;52.40;98249.78;5031007;28;20049;-58
2023/08/21 08:31:32;;;;;;;9.55;6.82;;;26.60;72.00;;;27.74;51.88;98244.34;5030402;28;20061;-58
2023/08/21 08:34:00;;;;;;;8.55;6.82;;;26.60;71.20;;;27.73;52.12;98245.44;5030713;28;20057;-57
2023/08/21 08:36:28;;;;;;;6.45;5.60;;;26.70;71.40;;;27.81;51.95;98246.88;5031526;28;20041;-58
2023/08/21 08:38:56;;;;;;;9.02;7.43;;;26.70;71.00;;;27.85;52.48;98248.81;5034544;28;20116;-58
2023/08/21 08:42:05;;;;;;;8.85;6.80;;;26.80;71.70;;;27.82;51.92;98241.16;5034058;28;20049;-58
2023/08/21 08:44:36;;;;;;;8.77;6.00;;;26.90;70.50;;;27.92;51.71;98242.34;5007854;28;20436;-58
2023/08/21 08:47:04;;;;;;;8.60;5.90;;;26.90;70.40;;;27.96;51.28;98243.50;5031334;28;20053;-57
2023/08/21 08:49:31;;;;;;;7.07;5.88;;;26.90;69.80;;;27.99;51.44;98240.22;5033223;28;20052;-58
2023/08/21 08:52:00;;;;;;;8.45;6.75;;;27.00;70.50;;;28.02;51.58;98240.53;5033993;28;20060;-58
2023/08/21 08:54:30;;;;;;;9.02;6.00;;;27.00;70.30;;;28.10;51.45;98246.63;5034038;28;20045;-58
2023/08/21 08:56:58;;;;;;;7.68;5.90;;;27.10;70.60;;;28.11;51.50;98235.44;5033262;28;20054;-58
2023/08/21 08:59:27;;;;;;;7.45;6.75;;;27.20;70.50;;;28.16;51.13;98240.94;5034204;28;20045;-58
2023/08/21 09:01:55;;;;;;;8.43;5.75;;;27.20;70.10;;;28.21;51.21;98243.72;5034269;28;20045;-58
2023/08/21 09:04:23;;;;;;;8.50;6.15;;;27.20;70.10;;;28.27;51.25;98241.84;5032808;28;20405;-58
2023/08/21 09:06:50;;;;;;;11.93;6.57;;;27.30;69.70;;;28.32;50.90;98239.13;5032920;28;20045;-58
2023/08/21 09:09:18;;;;;;;9.27;6.82;;;27.30;69.30;;;28.37;51.06;98244.66;5032978;28;20037;-58
2023/08/21 09:11:47;;;;;;;8.68;6.20;;;27.40;69.40;;;28.38;50.71;98248.22;5032695;28;20042;-57
2023/08/21 09:14:15;;;;;;;6.93;6.10;;;27.40;69.10;;;28.44;50.59;98247.16;5031678;28;20037;-58
2023/08/21 09:17:03;;;;;;;7.35;6.32;;;27.50;68.60;;;28.47;50.50;98244.72;5033021;28;20041;-58
2023/08/21 09:19:31;;;;;;;7.53;6.75;;;27.50;66.80;;;28.48;50.17;98242.81;5033104;28;20057;-58
2023/08/21 09:22:11;;;;;;;9.02;6.45;;;27.50;67.90;;;28.54;50.08;98246.44;5032491;28;20048;-58
2023/08/21 09:25:06;;;;;;;9.20;6.40;;;27.50;68.10;;;28.58;50.42;98247.56;5029062;28;20041;-58
2023/08/21 09:27:35;;;;;;;8.55;6.50;;;27.70;67.80;;;28.68;50.17;98244.91;5028252;28;20041;-56
2023/08/21 09:30:14;;;;;;;7.38;6.25;;;27.60;67.70;;;28.70;49.92;98247.38;5032102;28;20045;-58
2023/08/21 09:33:04;;;;;;;6.97;5.68;;;27.70;66.60;;;28.74;49.90;98243.84;5033423;28;20489;-58
2023/08/21 09:35:33;;;;;;;7.10;6.32;;;27.80;66.10;;;28.81;49.43;98251.84;5027661;28;20050;-58
2023/08/21 09:38:01;;;;;;;9.95;5.70;;;27.90;66.40;;;28.83;49.08;98246.91;5033254;28;20108;-58
2023/08/21 09:40:29;;;;;;;8.48;6.68;;;27.90;65.10;;;28.90;49.03;98244.75;5033581;28;20182;-58
2023/08/21 09:42:57;;;;;;;8.05;6.72;;;27.90;65.10;;;28.97;49.26;98253.56;5033511;28;20045;-57
2023/08/21 09:45:27;;;;;;;6.30;5.18;;;28.00;66.10;;;29.01;48.60;98242.88;5032652;28;20052;-58
2023/08/21 09:47:56;;;;;;;10.15;5.90;;;28.10;64.90;;;29.05;48.11;98241.25;5032026;28;20041;-58
2023/08/21 09:50:24;;;;;;;9.57;6.22;;;28.10;63.40;;;29.09;48.38;98236.88;5031988;28;20041;-58
2023/08/21 09:52:53;;;;;;;10.90;7.05;;;28.20;64.60;;;29.15;48.60;98237.78;5033672;28;20050;-61
2023/08/21 09:55:22;;;;;;;10.75;6.70;;;28.20;65.10;;;29.19;48.03;98236.13;5032181;28;20049;-60
2023/08/21 09:57:58;;;;;;;7.97;6.63;;;28.20;63.80;;;29.23;47.85;98229.84;5032200;28;20041;-59
2023/08/21 10:00:40;;;;;;;6.75;5.75;;;28.30;63.30;;;29.27;47.58;98227.38;5032382;28;20050;-53
2023/08/21 10:03:11;;;;;;;6.23;4.93;;;28.30;62.10;;;29.25;46.24;98230.44;5032649;28;20371;-56
2023/08/21 10:05:39;;;;;;;9.50;5.85;;;28.30;59.50;;;29.31;46.43;98223.00;5033770;28;20052;-58
2023/08/21 10:08:08;;;;;;;6.38;5.25;;;28.40;60.70;;;29.39;46.24;98224.41;5032374;28;20033;-57
2023/08/21 10:10:38;;;;;;;7.10;5.22;;;28.40;60.30;;;29.44;46.46;98218.94;5033097;28;20045;-58
2023/08/21 10:13:09;;;;;;;7.68;6.00;;;28.60;60.30;;;29.48;46.42;98213.75;5032672;28;20041;-57
2023/08/21 10:15:38;;;;;;;7.53;6.05;;;28.60;60.40;;;29.55;46.74;98211.59;5032773;28;20065;-57
2023/08/21 10:18:30;;;;;;;6.43;5.78;;;28.60;61.10;;;29.63;46.79;98222.00;5031732;28;20053;-57
2023/08/21 10:21:20;;;;;;;7.15;5.20;;;28.70;60.10;;;29.74;46.75;98209.16;5032423;28;20049;-57
2023/08/21 10:23:54;;;;;;;7.18;5.50;;;28.70;60.70;;;29.83;45.92;98213.00;5031617;28;20190;-57
2023/08/21 10:26:25;;;;;;;9.57;6.50;;;28.80;58.90;;;29.87;45.50;98210.56;5032087;28;20045;-58
2023/08/21 10:29:06;;;;;;;7.95;5.47;;;28.90;59.80;;;29.91;45.81;98197.94;5031455;28;20045;-59